Search for airport 
image banner adimage banner adimage banner ad
image banner ad

NV34 - University Medical Center-Southern Nevada

Located in Las Vegas, United States

ICAO - NV34, IATA -

Data provided by Airmate  

General information

Coordinates: N36°9'35" W115°9'58"
Elevation is 2096 feet MSL.
Magnetic variation is 14° East
View others Airports in Nevada

Operational data

Special qualification required
Current time UTC:
Current local time:
Weather at : KVGT - North Las Vegas ( 6 km )
METAR: KVGT 131053Z AUTO 32007KT 10SM CLR 26/M08 A2977 RMK AO2 SLP066 T02561078
TAF: KVGT 131120Z 1312/1412 VRB05KT P6SM FEW250 FM131600 14007KT P6SM FEW250 FM132000 21014G24KT P6SM SKC FM140300 25008KT P6SM SKC FM141000 VRB05KT P6SM SKC
View NOTAMs / SUP AIP / TFR affecting this airport [VIEW]
Communications frequencies: [VIEW]

Runways:

Airport contact information

Address: Las Vegas United States

Satellite view of NV34